Time;durP1;ratioP1;P1;durP2;ratioP2;P2;SDS_P1;SDS_P2;PMS_P1;PMS_P2;Temp;Humidity;BMP_temperature;BMP_pressure;BME280_temperature;BME280_humidity;BME280_pressure;Samples;Min_cycle;Max_cycle;Signal;HPM_P1;HPM_P2
2021/09/21 00:02:11;;;;;;;5.93;5.53;;;;;;;10.28;100.00;98747.06;4960396;28;20691;-68
2021/09/21 00:04:40;;;;;;;6.03;5.53;;;;;;;10.25;100.00;98752.66;4957328;28;20215;-66
2021/09/21 00:07:08;;;;;;;6.60;6.17;;;;;;;10.30;100.00;98744.25;4961162;28;20213;-67
2021/09/21 00:09:36;;;;;;;6.40;5.90;;;;;;;10.27;100.00;98749.84;4945012;28;20246;-67
2021/09/21 00:12:05;;;;;;;6.07;5.67;;;;;;;10.24;100.00;98752.78;4953650;28;20734;-68
2021/09/21 00:14:33;;;;;;;5.83;5.43;;;;;;;10.25;100.00;98746.50;4940378;28;20230;-66
2021/09/21 00:17:02;;;;;;;6.57;5.93;;;;;;;10.24;100.00;98747.50;4932377;28;20222;-68
2021/09/21 00:19:32;;;;;;;6.13;5.63;;;;;;;10.22;100.00;98750.28;4959834;28;20729;-68
2021/09/21 00:22:02;;;;;;;6.40;5.90;;;;;;;10.39;100.00;98758.47;4963535;28;20238;-67
2021/09/21 00:24:30;;;;;;;6.53;5.93;;;;;;;10.32;100.00;98746.78;4963940;28;20207;-67
2021/09/21 00:26:58;;;;;;;6.60;6.10;;;;;;;10.24;100.00;98752.78;4946341;28;20737;-67
2021/09/21 00:29:26;;;;;;;6.13;5.60;;;;;;;10.35;100.00;98746.50;4949628;28;20230;-68
2021/09/21 00:31:59;;;;;;;6.37;5.87;;;;;;;10.28;100.00;98751.53;4926638;28;20351;-67
2021/09/21 00:34:37;;;;;;;6.60;6.10;;;;;;;10.21;100.00;98742.47;4959589;28;20214;-68
2021/09/21 00:37:07;;;;;;;6.43;5.87;;;;;;;10.17;100.00;98741.09;4963876;28;20300;-68
2021/09/21 00:39:35;;;;;;;5.73;5.33;;;;;;;10.16;100.00;98736.78;4960177;28;20715;-66
2021/09/21 00:42:04;;;;;;;6.37;5.83;;;;;;;10.12;100.00;98737.06;4950392;28;20237;-69
2021/09/21 00:44:32;;;;;;;6.67;6.17;;;;;;;10.17;100.00;98741.09;4959660;28;20210;-66
2021/09/21 00:47:00;;;;;;;6.17;5.77;;;;;;;10.14;100.00;98740.41;4916657;28;20380;-67
2021/09/21 00:49:28;;;;;;;6.80;6.23;;;;;;;10.08;100.00;98735.69;4957310;28;20253;-68
2021/09/21 00:51:56;;;;;;;6.37;5.77;;;;;;;10.13;100.00;98741.38;4943248;28;20214;-68
2021/09/21 00:54:26;;;;;;;7.00;6.40;;;;;;;10.21;100.00;98745.13;4962626;28;20221;-68
2021/09/21 00:56:55;;;;;;;6.10;5.60;;;;;;;10.36;100.00;98742.88;4949117;28;20341;-66
2021/09/21 00:59:23;;;;;;;6.13;5.73;;;;;;;10.50;100.00;98742.41;4968781;28;20226;-67
2021/09/21 01:01:51;;;;;;;6.93;6.43;;;;;;;10.51;100.00;98752.03;4916525;28;20706;-65
2021/09/21 01:04:19;;;;;;;7.13;6.57;;;;;;;10.32;100.00;98750.25;4958889;28;20329;-66
2021/09/21 01:06:47;;;;;;;6.67;6.17;;;;;;;10.17;100.00;98752.50;4958275;28;20629;-67
2021/09/21 01:09:18;;;;;;;6.00;5.50;;;;;;;10.18;100.00;98751.53;4963078;28;20226;-68
2021/09/21 01:11:48;;;;;;;6.70;6.20;;;;;;;10.26;100.00;98751.69;4955286;28;20207;-67
2021/09/21 01:14:16;;;;;;;6.90;6.40;;;;;;;10.32;100.00;98755.56;4954040;28;21177;-67
2021/09/21 01:16:44;;;;;;;7.10;6.60;;;;;;;10.28;100.00;98759.47;4920182;28;20217;-66
2021/09/21 01:19:13;;;;;;;7.00;6.40;;;;;;;10.49;100.00;98758.47;4962818;28;20523;-66
2021/09/21 01:21:43;;;;;;;6.60;6.10;;;;;;;10.37;100.00;98757.78;4964457;28;20237;-68
2021/09/21 01:24:12;;;;;;;7.30;6.70;;;;;;;10.21;100.00;98756.53;4967543;28;20217;-66
2021/09/21 01:26:41;;;;;;;7.90;7.10;;;;;;;10.24;100.00;98755.44;4962662;28;20681;-68
2021/09/21 01:29:09;;;;;;;7.03;6.53;;;;;;;10.12;100.00;98744.16;4953474;28;20244;-66
2021/09/21 01:31:39;;;;;;;7.30;6.70;;;;;;;10.17;100.00;98754.34;4952726;28;20221;-67
2021/09/21 01:34:08;;;;;;;7.03;6.43;;;;;;;10.23;100.00;98761.72;4932195;28;20233;-66
2021/09/21 01:36:36;;;;;;;8.20;7.50;;;;;;;10.29;100.00;98763.78;4962720;28;20210;-67
2021/09/21 01:39:06;;;;;;;6.93;6.43;;;;;;;10.23;100.00;98765.22;4971011;28;20425;-67
2021/09/21 01:41:34;;;;;;;6.80;6.23;;;;;;;10.20;100.00;98764.66;4916859;28;20668;-66
2021/09/21 01:44:02;;;;;;;6.43;5.93;;;;;;;10.11;100.00;98764.53;4962267;28;20214;-67
2021/09/21 01:46:30;;;;;;;7.43;6.83;;;;;;;10.13;100.00;98759.94;4948432;28;20641;-67
2021/09/21 01:48:58;;;;;;;7.57;6.73;;;;;;;10.05;100.00;98762.47;4954500;28;20246;-66
2021/09/21 01:51:30;;;;;;;6.77;6.27;;;;;;;10.11;100.00;98755.75;4948143;28;20207;-68
2021/09/21 01:54:13;;;;;;;7.27;6.67;;;;;;;10.19;100.00;98762.97;4955767;28;20222;-66
2021/09/21 01:59:29;;;;;;;8.17;7.03;;;;;;;10.08;100.00;98759.53;4956995;28;20222;-68
2021/09/21 02:01:57;;;;;;;7.07;6.57;;;;;;;10.02;100.00;98773.31;4963069;28;20233;-67
2021/09/21 02:04:25;;;;;;;7.00;6.50;;;;;;;10.18;100.00;98769.25;4966114;28;20214;-67
2021/09/21 02:06:54;;;;;;;7.17;6.57;;;;;;;10.11;100.00;98772.47;4958188;28;20226;-66
2021/09/21 02:09:22;;;;;;;6.73;6.23;;;;;;;10.02;100.00;98762.72;4956131;28;20555;-66
2021/09/21 02:11:52;;;;;;;6.73;6.23;;;;;;;10.05;100.00;98764.25;4928122;28;20217;-66
2021/09/21 02:14:22;;;;;;;7.30;6.67;;;;;;;10.01;100.00;98761.03;4958689;28;20714;-66
2021/09/21 02:16:54;;;;;;;8.00;7.40;;;;;;;10.06;100.00;98764.13;4960871;28;20229;-66
2021/09/21 02:19:22;;;;;;;6.47;5.97;;;;;;;10.09;100.00;98763.84;4955762;28;20520;-67
2021/09/21 02:21:51;;;;;;;7.43;6.17;;;;;;;10.06;100.00;98763.28;4962133;28;20211;-66
2021/09/21 02:24:22;;;;;;;7.60;6.97;;;;;;;10.08;100.00;98759.53;4944141;28;20646;-66
2021/09/21 02:26:52;;;;;;;6.93;6.33;;;;;;;10.08;100.00;98769.25;4925571;28;20213;-66
2021/09/21 02:29:20;;;;;;;7.10;6.50;;;;;;;10.10;100.00;98767.31;4957727;28;20415;-67
2021/09/21 02:31:48;;;;;;;7.10;6.60;;;;;;;10.06;100.00;98769.44;4959951;28;20634;-66
2021/09/21 02:34:16;;;;;;;7.03;6.43;;;;;;;10.14;100.00;98769.53;4961489;28;20205;-67
2021/09/21 02:36:44;;;;;;;7.37;6.73;;;;;;;9.96;100.00;98765.94;4961078;28;20206;-67
2021/09/21 02:39:13;;;;;;;6.90;6.40;;;;;;;9.91;100.00;98765.53;4948499;28;20448;-66
2021/09/21 02:41:41;;;;;;;6.90;6.40;;;;;;;9.89;100.00;98765.69;4960154;28;20206;-68
2021/09/21 02:44:10;;;;;;;6.97;6.37;;;;;;;9.81;100.00;98776.09;4922818;28;20233;-67
2021/09/21 02:46:38;;;;;;;6.87;6.27;;;;;;;9.77;100.00;98780.00;4955061;28;20630;-68
2021/09/21 02:49:06;;;;;;;6.90;6.40;;;;;;;9.78;100.00;98784.34;4953546;28;20372;-69
2021/09/21 02:51:34;;;;;;;6.83;6.13;;;;;;;9.65;100.00;98780.16;4961592;28;20695;-71
2021/09/21 02:54:02;;;;;;;7.33;6.70;;;;;;;9.56;100.00;98776.53;4939909;28;20585;-68
2021/09/21 02:56:30;;;;;;;8.10;6.97;;;;;;;9.48;100.00;98776.38;4958316;28;20264;-69
2021/09/21 02:58:58;;;;;;;7.73;6.80;;;;;;;9.42;100.00;98784.88;4920272;28;20296;-69
2021/09/21 03:01:28;;;;;;;8.20;7.47;;;;;;;9.43;100.00;98788.34;4957860;28;20213;-70
2021/09/21 03:03:59;;;;;;;7.23;6.63;;;;;;;9.58;100.00;98783.50;4959019;28;20761;-68
2021/09/21 03:06:30;;;;;;;6.97;6.47;;;;;;;9.53;100.00;98782.09;4962803;28;20210;-70
2021/09/21 03:09:04;;;;;;;7.77;7.07;;;;;;;9.62;100.00;98784.88;4951382;28;20599;-69
2021/09/21 03:11:39;;;;;;;7.53;6.90;;;;;;;9.54;100.00;98796.19;4955931;28;20198;-70
2021/09/21 03:19:48;;;;;;;8.30;6.40;;;;;;;10.01;100.00;98797.28;4923772;28;20244;-69
2021/09/21 03:22:16;;;;;;;7.70;7.00;;;;;;;9.74;100.00;98804.97;4959628;28;20206;-69
2021/09/21 03:24:44;;;;;;;7.13;6.53;;;;;;;9.76;100.00;98810.09;4947930;28;20249;-71
2021/09/21 03:27:12;;;;;;;7.47;6.87;;;;;;;9.65;100.00;98809.28;4952848;28;20760;-70
2021/09/21 03:29:40;;;;;;;6.67;6.17;;;;;;;9.72;100.00;98809.56;4920618;28;20238;-71
2021/09/21 03:32:09;;;;;;;7.43;6.83;;;;;;;9.56;100.00;98813.56;4953394;28;20291;-68
2021/09/21 03:34:38;;;;;;;7.17;6.67;;;;;;;9.51;100.00;98813.16;4960643;28;20205;-70
2021/09/21 03:37:06;;;;;;;7.97;7.30;;;;;;;9.59;100.00;98817.75;4957206;28;20232;-70
2021/09/21 03:39:34;;;;;;;7.73;7.07;;;;;;;9.54;100.00;98815.53;4958104;28;20222;-70
2021/09/21 03:42:03;;;;;;;7.10;6.50;;;;;;;9.52;100.00;98812.19;4942187;28;20346;-69
2021/09/21 03:44:31;;;;;;;7.73;7.13;;;;;;;9.68;100.00;98816.13;4927984;28;20597;-69
2021/09/21 03:46:58;;;;;;;7.20;6.63;;;;;;;9.77;100.00;98812.63;4958135;28;20237;-70
2021/09/21 03:49:28;;;;;;;6.97;6.43;;;;;;;9.58;100.00;98813.44;4918134;28;20230;-69
2021/09/21 03:51:56;;;;;;;7.10;6.40;;;;;;;9.44;100.00;98813.81;4962652;28;20217;-70
2021/09/21 03:54:24;;;;;;;8.10;7.30;;;;;;;9.37;100.00;98813.56;4957189;28;20210;-69
2021/09/21 03:56:52;;;;;;;7.43;6.83;;;;;;;9.39;100.00;98819.53;4961493;28;20206;-69
2021/09/21 03:59:20;;;;;;;7.50;7.00;;;;;;;9.37;100.00;98817.03;4926833;28;20617;-69
2021/09/21 04:01:48;;;;;;;7.80;7.13;;;;;;;9.47;100.00;98826.78;4958343;28;20221;-70
2021/09/21 04:04:16;;;;;;;7.60;7.00;;;;;;;9.47;100.00;98827.63;4923898;28;20237;-67
2021/09/21 04:06:46;;;;;;;8.13;7.53;;;;;;;9.63;100.00;98829.75;4963457;28;20861;-67
2021/09/21 04:09:14;;;;;;;7.60;6.80;;;;;;;9.62;100.00;98825.44;4960661;28;20226;-66
2021/09/21 04:11:42;;;;;;;7.60;6.67;;;;;;;9.64;100.00;98826.13;4961146;28;20446;-68
2021/09/21 04:14:10;;;;;;;7.40;6.80;;;;;;;9.66;100.00;98828.63;4960414;28;20229;-66
2021/09/21 04:16:38;;;;;;;8.87;7.93;;;;;;;9.51;100.00;98830.84;4957056;28;20344;-68
2021/09/21 04:19:06;;;;;;;8.17;7.47;;;;;;;9.46;100.00;98833.03;4931700;28;20754;-67
2021/09/21 04:21:34;;;;;;;9.30;8.17;;;;;;;9.46;100.00;98840.97;4956595;28;20478;-67
2021/09/21 04:24:03;;;;;;;8.03;7.33;;;;;;;9.44;100.00;98843.78;4959925;28;20229;-67
2021/09/21 04:26:31;;;;;;;7.90;7.30;;;;;;;9.44;100.00;98842.94;4966901;28;20628;-67
2021/09/21 04:28:59;;;;;;;7.90;7.10;;;;;;;9.37;100.00;98853.22;4960383;28;20233;-69
2021/09/21 04:31:28;;;;;;;8.03;7.23;;;;;;;9.55;100.00;98856.06;4954208;28;20756;-70
2021/09/21 04:33:56;;;;;;;7.27;6.67;;;;;;;9.55;100.00;98854.25;4959104;28;20500;-68
2021/09/21 04:36:24;;;;;;;7.33;6.80;;;;;;;9.69;100.00;98860.13;4920280;28;20226;-69
2021/09/21 04:38:52;;;;;;;9.33;8.60;;;;;;;9.62;100.00;98867.78;4967666;28;20710;-69
2021/09/21 04:41:21;;;;;;;8.10;7.50;;;;;;;9.73;100.00;98879.19;4957173;28;20217;-69
2021/09/21 04:43:49;;;;;;;8.40;7.60;;;;;;;9.62;100.00;98878.34;4960777;28;20234;-68
2021/09/21 04:46:17;;;;;;;8.57;7.87;;;;;;;9.57;100.00;98883.22;4932569;28;20272;-70
2021/09/21 04:48:45;;;;;;;8.70;7.93;;;;;;;9.60;100.00;98890.03;4940081;28;20241;-69
2021/09/21 04:51:13;;;;;;;7.90;7.30;;;;;;;9.61;100.00;98900.50;4926735;28;20667;-71
2021/09/21 04:53:41;;;;;;;8.13;7.47;;;;;;;9.65;100.00;98893.97;4942216;28;20213;-70
2021/09/21 04:56:09;;;;;;;7.73;7.13;;;;;;;9.56;100.00;98908.00;4963899;28;20595;-70
2021/09/21 04:58:38;;;;;;;7.73;7.03;;;;;;;9.55;100.00;98899.22;4963228;28;20253;-70
2021/09/21 05:01:06;;;;;;;7.80;7.00;;;;;;;9.53;100.00;98906.47;4952233;28;20432;-69
2021/09/21 05:03:34;;;;;;;7.17;6.47;;;;;;;9.44;100.00;98907.28;4963099;28;20313;-69
2021/09/21 05:06:02;;;;;;;7.40;6.80;;;;;;;9.63;100.00;98905.63;4922402;28;20410;-69
2021/09/21 05:08:30;;;;;;;7.77;7.17;;;;;;;9.53;100.00;98905.63;4946792;28;20744;-72
2021/09/21 05:10:58;;;;;;;7.97;7.27;;;;;;;9.51;100.00;98915.53;4956449;28;20444;-71
2021/09/21 05:13:26;;;;;;;8.83;8.00;;;;;;;9.51;100.00;98913.69;4958551;28;20210;-70
2021/09/21 05:15:55;;;;;;;8.93;8.23;;;;;;;9.50;100.00;98922.59;4962014;28;20625;-70
2021/09/21 05:18:23;;;;;;;8.87;7.97;;;;;;;9.46;100.00;98920.34;4943341;28;20230;-71
2021/09/21 05:20:51;;;;;;;8.50;7.80;;;;;;;9.52;100.00;98919.84;4928228;28;20594;-70
2021/09/21 05:23:19;;;;;;;8.17;7.57;;;;;;;9.70;100.00;98918.22;4960868;28;20214;-71
2021/09/21 05:25:47;;;;;;;9.77;8.13;;;;;;;9.56;100.00;98916.78;4964682;28;20229;-70
2021/09/21 05:28:15;;;;;;;8.40;7.70;;;;;;;9.60;100.00;98921.78;4962490;28;20712;-70
2021/09/21 05:30:43;;;;;;;7.83;7.23;;;;;;;9.61;100.00;98926.13;4957684;28;20272;-70
2021/09/21 05:33:12;;;;;;;8.60;7.10;;;;;;;9.69;100.00;98927.13;4941299;28;20654;-68
2021/09/21 05:35:48;;;;;;;8.20;7.40;;;;;;;9.65;100.00;98931.00;4907749;28;20214;-67
2021/09/21 05:38:16;;;;;;;8.00;7.40;;;;;;;9.71;100.00;98927.00;4955997;28;20333;-68
2021/09/21 05:40:44;;;;;;;7.37;6.87;;;;;;;9.69;100.00;98921.81;4944856;28;20493;-67
2021/09/21 05:43:12;;;;;;;8.27;7.47;;;;;;;9.67;100.00;98938.84;4957780;28;20544;-70
2021/09/21 05:45:40;;;;;;;9.17;7.43;;;;;;;9.74;100.00;98923.22;4953318;28;20252;-70
2021/09/21 05:48:08;;;;;;;7.80;7.10;;;;;;;9.62;100.00;98928.63;4952294;28;20659;-69
2021/09/21 05:50:37;;;;;;;7.70;7.03;;;;;;;9.80;100.00;98934.13;4965662;28;20206;-68
2021/09/21 05:53:05;;;;;;;8.83;8.13;;;;;;;9.79;100.00;98926.31;4922831;28;20627;-71
2021/09/21 05:55:33;;;;;;;8.33;7.60;;;;;;;9.66;100.00;98926.53;4923570;28;20207;-72
2021/09/21 05:58:01;;;;;;;7.53;6.83;;;;;;;9.79;100.00;98940.38;4945835;28;20203;-69
2021/09/21 06:00:29;;;;;;;8.50;7.80;;;;;;;9.95;100.00;98937.22;4956093;28;20938;-69
2021/09/21 06:02:57;;;;;;;8.67;7.87;;;;;;;10.10;100.00;98939.47;4966188;28;20213;-68
2021/09/21 06:05:25;;;;;;;7.80;7.03;;;;;;;10.04;100.00;98940.88;4945361;28;20226;-70
2021/09/21 06:07:55;;;;;;;7.87;7.10;;;;;;;9.96;100.00;98944.19;4964141;28;20455;-68
2021/09/21 06:10:24;;;;;;;7.97;7.27;;;;;;;9.95;100.00;98944.31;4944244;28;20202;-71
2021/09/21 06:12:56;;;;;;;8.53;7.83;;;;;;;9.93;100.00;98951.56;4954679;28;20229;-70
2021/09/21 06:15:24;;;;;;;8.50;7.80;;;;;;;9.97;100.00;98947.66;4961959;28;20211;-70
2021/09/21 06:17:52;;;;;;;8.40;7.60;;;;;;;9.95;100.00;98945.16;4955772;28;20405;-71
2021/09/21 06:20:20;;;;;;;8.43;7.73;;;;;;;9.91;100.00;98943.75;4946304;28;20214;-69
2021/09/21 06:22:49;;;;;;;8.27;7.47;;;;;;;9.95;100.00;98952.25;4957680;28;20552;-70
2021/09/21 06:25:18;;;;;;;8.70;7.80;;;;;;;10.10;100.00;98952.69;4955475;28;20832;-68
2021/09/21 06:27:46;;;;;;;8.57;7.17;;;;;;;10.13;100.00;98966.53;4934080;28;20594;-68
2021/09/21 06:30:16;;;;;;;8.17;7.43;;;;;;;10.21;100.00;98970.28;4960410;28;20481;-71
2021/09/21 06:32:44;;;;;;;7.67;7.07;;;;;;;10.17;100.00;98969.72;4958100;28;20210;-70
2021/09/21 06:35:12;;;;;;;7.47;6.97;;;;;;;10.19;100.00;98980.19;4951918;28;20218;-69
2021/09/21 06:37:40;;;;;;;8.83;8.03;;;;;;;10.27;100.00;98986.47;4956207;28;20210;-72
2021/09/21 06:40:09;;;;;;;9.07;7.47;;;;;;;10.40;100.00;98993.34;4955228;28;20241;-69
2021/09/21 06:42:41;;;;;;;8.60;7.80;;;;;;;10.49;100.00;98997.81;4918636;28;20269;-71
2021/09/21 06:45:10;;;;;;;7.83;7.23;;;;;;;10.49;100.00;99003.09;4956777;28;20230;-69
2021/09/21 06:47:38;;;;;;;8.10;7.40;;;;;;;10.70;100.00;99007.44;4959902;28;20389;-68
2021/09/21 06:50:07;;;;;;;8.40;7.73;;;;;;;10.80;100.00;99007.47;4952566;28;20237;-70
2021/09/21 06:52:35;;;;;;;7.67;7.17;;;;;;;10.65;100.00;98999.91;4957391;28;20213;-69
2021/09/21 06:55:04;;;;;;;8.00;7.30;;;;;;;10.69;100.00;99003.94;4962357;28;20213;-68
2021/09/21 06:57:32;;;;;;;8.40;7.80;;;;;;;10.70;100.00;99013.56;4923391;28;20230;-71
2021/09/21 07:00:01;;;;;;;8.47;7.67;;;;;;;10.94;100.00;99016.78;4958726;28;20237;-68
2021/09/21 07:02:29;;;;;;;7.83;7.23;;;;;;;10.89;100.00;99011.06;4959921;28;20217;-73
2021/09/21 07:04:58;;;;;;;8.97;8.17;;;;;;;10.94;100.00;99012.31;4958426;28;20323;-69
2021/09/21 07:07:25;;;;;;;8.70;7.97;;;;;;;11.02;100.00;99008.97;4943957;28;20210;-71
2021/09/21 07:09:56;;;;;;;8.33;7.60;;;;;;;11.12;100.00;99019.53;4956064;28;20242;-68
2021/09/21 07:12:25;;;;;;;8.33;6.93;;;;;;;11.13;100.00;99008.78;4942005;28;20290;-73
2021/09/21 07:14:53;;;;;;;7.47;6.87;;;;;;;11.18;100.00;99013.69;4947130;28;20217;-69
2021/09/21 07:17:23;;;;;;;8.33;7.53;;;;;;;11.18;100.00;99008.38;4965932;28;20705;-71
2021/09/21 07:19:51;;;;;;;7.83;7.20;;;;;;;11.12;100.00;99011.56;4961118;28;20226;-69
2021/09/21 07:22:19;;;;;;;9.60;7.53;;;;;;;11.19;100.00;99006.53;4947665;28;20210;-70
2021/09/21 07:24:46;;;;;;;8.00;7.30;;;;;;;11.48;100.00;99019.72;4959831;28;20243;-72
2021/09/21 07:27:14;;;;;;;8.67;7.97;;;;;;;11.41;100.00;99016.84;4963618;28;20210;-69
2021/09/21 07:29:43;;;;;;;8.40;7.70;;;;;;;11.62;100.00;99021.09;4931278;28;20500;-67
2021/09/21 07:32:11;;;;;;;8.60;7.90;;;;;;;11.62;100.00;99020.25;4966794;28;20647;-68
2021/09/21 07:34:40;;;;;;;8.13;7.40;;;;;;;11.85;100.00;99029.50;4953968;28;20424;-71
2021/09/21 07:37:09;;;;;;;9.63;8.73;;;;;;;11.80;100.00;99023.00;4949474;28;20535;-66
2021/09/21 07:39:37;;;;;;;7.50;6.90;;;;;;;12.05;100.00;99031.28;4961662;28;20525;-69
2021/09/21 07:42:06;;;;;;;8.37;7.77;;;;;;;12.07;100.00;99035.47;4969455;28;20209;-68
2021/09/21 07:44:34;;;;;;;8.90;8.07;;;;;;;12.06;100.00;99038.25;4925974;28;20215;-71
2021/09/21 07:47:02;;;;;;;8.13;7.40;;;;;;;12.11;100.00;99044.81;4960933;28;20602;-72
2021/09/21 07:49:30;;;;;;;8.90;8.20;;;;;;;12.09;100.00;99043.28;4958562;28;20613;-71
2021/09/21 07:51:59;;;;;;;8.97;8.27;;;;;;;12.24;100.00;99060.41;4963559;28;20202;-68
2021/09/21 07:54:27;;;;;;;10.43;9.03;;;;;;;12.24;100.00;99072.84;4946152;28;20223;-70
2021/09/21 07:56:55;;;;;;;8.80;7.90;;;;;;;12.15;100.00;99070.09;4956006;28;20202;-69
2021/09/21 07:59:23;;;;;;;8.30;7.70;;;;;;;12.15;100.00;99071.94;4944053;28;20226;-71
2021/09/21 08:01:52;;;;;;;11.33;8.70;;;;;;;12.15;100.00;99067.44;4933617;28;20225;-70
2021/09/21 08:04:21;;;;;;;7.70;6.97;;;;;;;12.20;100.00;99071.47;4943459;28;20212;-69
2021/09/21 08:06:49;;;;;;;8.73;7.93;;;;;;;12.43;100.00;99083.38;4969017;28;20730;-70
2021/09/21 08:09:18;;;;;;;8.50;7.83;;;;;;;12.34;100.00;99078.13;4953116;28;20457;-70
2021/09/21 08:11:46;;;;;;;9.17;8.47;;;;;;;12.36;100.00;99073.47;4963091;28;20198;-71
2021/09/21 08:14:14;;;;;;;8.73;8.03;;;;;;;12.42;100.00;99084.38;4957666;28;20747;-70
2021/09/21 08:16:42;;;;;;;8.50;7.80;;;;;;;12.76;100.00;99082.06;4965591;28;20675;-73
2021/09/21 08:19:11;;;;;;;8.93;8.13;;;;;;;12.63;100.00;99077.09;4929810;28;20241;-69
2021/09/21 08:21:39;;;;;;;9.20;8.43;;;;;;;12.65;100.00;99081.25;4968636;28;20227;-70
2021/09/21 08:24:07;;;;;;;9.97;7.57;;;;;;;12.74;100.00;99079.53;4963794;28;20410;-69
2021/09/21 08:26:36;;;;;;;8.63;8.03;;;;;;;13.15;100.00;99071.09;4950344;28;20990;-68
2021/09/21 08:29:04;;;;;;;8.80;8.10;;;;;;;13.11;100.00;99075.88;4965685;28;20388;-68
2021/09/21 08:31:32;;;;;;;9.30;8.40;;;;;;;13.07;100.00;99066.53;4965590;28;20268;-69
2021/09/21 08:34:01;;;;;;;8.83;7.93;;;;;;;13.10;100.00;99065.41;4924646;28;20710;-70
2021/09/21 08:36:29;;;;;;;8.37;7.67;;;;;;;13.22;100.00;99071.28;4961592;28;20202;-68
2021/09/21 08:38:57;;;;;;;9.20;8.33;;;;;;;13.11;100.00;99064.41;4958500;28;20731;-69
2021/09/21 08:41:25;;;;;;;8.30;7.70;;;;;;;13.37;100.00;99076.88;4949060;28;20210;-68
2021/09/21 08:43:55;;;;;;;9.40;8.70;;;;;;;13.45;100.00;99085.81;4961154;28;20213;-71
2021/09/21 08:46:23;;;;;;;7.57;6.97;;;;;;;13.23;100.00;99088.94;4968447;28;20748;-69
2021/09/21 08:48:51;;;;;;;7.53;6.93;;;;;;;13.30;100.00;99080.19;4927500;28;20229;-70
2021/09/21 08:51:19;;;;;;;9.67;8.37;;;;;;;13.27;98.18;99075.16;4961008;28;20424;-71
2021/09/21 08:53:47;;;;;;;8.77;7.77;;;;;;;13.06;100.00;99075.50;4959143;28;20240;-68
2021/09/21 08:56:15;;;;;;;7.77;7.10;;;;;;;13.09;100.00;99077.03;4950482;28;20429;-71
2021/09/21 08:58:43;;;;;;;7.53;6.93;;;;;;;13.16;100.00;99073.59;4961143;28;20241;-70
2021/09/21 09:01:14;;;;;;;7.90;7.30;;;;;;;13.21;96.06;99085.59;4964126;28;20197;-67
2021/09/21 09:03:54;;;;;;;9.47;7.87;;;;;;;13.40;97.49;99087.22;4925639;28;20213;-69
2021/09/21 09:06:23;;;;;;;7.63;7.03;;;;;;;13.35;96.13;99101.03;4960868;28;20722;-67
2021/09/21 09:08:51;;;;;;;7.33;6.63;;;;;;;13.59;94.25;99107.53;4955220;28;20237;-69
2021/09/21 09:11:21;;;;;;;7.33;6.73;;;;;;;13.66;90.82;99099.75;4950098;28;20225;-67
2021/09/21 09:13:53;;;;;;;7.27;6.60;;;;;;;13.87;89.48;99104.72;4960610;28;20748;-69
2021/09/21 09:16:23;;;;;;;7.87;7.27;;;;;;;13.89;77.23;99108.91;4965496;28;20212;-69
2021/09/21 09:19:01;;;;;;;6.87;6.37;;;;;;;14.01;70.42;99106.78;4927751;28;20238;-70
2021/09/21 09:21:31;;;;;;;6.90;6.30;;;;;;;14.04;72.43;99105.63;4963028;28;20201;-71
2021/09/21 09:24:00;;;;;;;7.50;6.90;;;;;;;13.92;71.12;99106.91;4959224;28;20207;-70
2021/09/21 09:26:31;;;;;;;6.67;6.07;;;;;;;13.75;73.38;99115.66;4966391;28;20233;-72
2021/09/21 09:28:59;;;;;;;9.67;7.40;;;;;;;14.07;74.28;99115.16;4943250;28;20247;-71
2021/09/21 09:31:30;;;;;;;8.33;7.63;;;;;;;13.93;80.73;99121.91;4957182;28;20713;-71
2021/09/21 09:34:06;;;;;;;7.13;6.63;;;;;;;14.13;75.54;99128.66;4927462;28;20221;-71
2021/09/21 09:36:46;;;;;;;8.00;7.30;;;;;;;13.96;75.66;99118.94;4956029;28;20683;-70
2021/09/21 09:39:15;;;;;;;7.37;6.77;;;;;;;14.15;77.81;99117.84;4961815;28;20234;-70
2021/09/21 09:41:44;;;;;;;7.97;7.23;;;;;;;14.12;77.46;99115.50;4967004;28;20213;-68
2021/09/21 09:44:14;;;;;;;7.87;7.03;;;;;;;14.39;78.50;99106.44;4946674;28;20257;-69
2021/09/21 09:46:51;;;;;;;7.07;6.53;;;;;;;14.86;73.09;99112.25;4963153;28;20257;-69
2021/09/21 09:49:26;;;;;;;7.00;6.50;;;;;;;14.60;77.71;99110.53;4959279;28;20225;-70
2021/09/21 09:51:57;;;;;;;7.40;6.80;;;;;;;14.72;74.77;99117.25;4921918;28;20244;-70
2021/09/21 09:54:25;;;;;;;7.83;7.20;;;;;;;14.76;75.15;99123.94;4956637;28;20586;-70
2021/09/21 09:56:53;;;;;;;7.20;6.70;;;;;;;14.99;67.75;99119.78;4952155;28;20694;-69
2021/09/21 09:59:22;;;;;;;6.50;6.00;;;;;;;15.08;69.51;99117.97;4953049;28;20234;-68
2021/09/21 10:01:52;;;;;;;6.67;6.07;;;;;;;14.99;67.33;99117.97;4955642;28;20723;-68
2021/09/21 10:04:21;;;;;;;6.43;6.03;;;;;;;15.07;68.10;99121.66;4958432;28;20207;-68
2021/09/21 10:06:50;;;;;;;7.13;6.57;;;;;;;15.09;65.44;99124.97;4927032;28;20274;-68
2021/09/21 10:09:26;;;;;;;7.50;7.00;;;;;;;14.87;66.21;99120.13;5109528;27;20549;-67
2021/09/21 10:11:56;;;;;;;6.50;6.00;;;;;;;14.69;69.54;99116.69;5119052;27;20208;-69
2021/09/21 10:14:25;;;;;;;5.80;5.40;;;;;;;14.64;68.59;99122.53;5126142;27;20214;-67
2021/09/21 10:16:55;;;;;;;6.77;6.23;;;;;;;14.63;67.84;99118.22;5120762;27;20222;-67
2021/09/21 10:19:24;;;;;;;5.83;5.47;;;;;;;14.71;69.92;99115.59;5129984;27;20711;-69
2021/09/21 10:21:54;;;;;;;5.67;5.30;;;;;;;15.03;67.05;99113.97;5133324;27;20284;-67
2021/09/21 10:24:36;;;;;;;5.90;5.40;;;;;;;15.05;64.54;99127.13;5106466;27;20207;-70
2021/09/21 10:27:07;;;;;;;5.87;5.47;;;;;;;15.13;61.14;99127.13;5126425;27;20196;-67
2021/09/21 10:29:35;;;;;;;5.43;5.13;;;;;;;14.99;60.23;99127.81;5128144;27;20500;-68
2021/09/21 10:32:11;;;;;;;5.70;5.20;;;;;;;15.05;60.48;99130.66;5133312;27;20223;-68
2021/09/21 10:34:40;;;;;;;5.90;5.50;;;;;;;14.75;63.31;99137.41;5116455;27;20430;-69
2021/09/21 10:37:08;;;;;;;5.53;5.13;;;;;;;14.80;61.84;99131.59;5129331;27;20227;-68
2021/09/21 10:39:38;;;;;;;4.87;4.57;;;;;;;14.84;61.55;99139.13;5128162;27;21028;-69
2021/09/21 10:42:08;;;;;;;6.40;5.80;;;;;;;14.79;60.17;99137.94;5093851;27;20208;-68
2021/09/21 10:44:36;;;;;;;5.97;5.00;;;;;;;14.74;58.58;99133.06;5123135;27;20457;-70
2021/09/21 10:47:06;;;;;;;5.40;5.00;;;;;;;15.03;57.49;99137.16;5129803;27;20215;-68
2021/09/21 10:49:37;;;;;;;5.40;5.03;;;;;;;15.13;57.15;99139.66;5117476;27;20225;-72
2021/09/21 10:52:07;;;;;;;5.47;5.07;;;;;;;15.37;55.40;99136.16;5126023;27;20648;-70
2021/09/21 10:54:38;;;;;;;6.00;5.57;;;;;;;15.43;54.86;99132.00;5126979;27;20595;-70
2021/09/21 10:57:13;;;;;;;5.30;5.00;;;;;;;15.65;54.33;99135.81;5091361;27;20215;-66
2021/09/21 10:59:53;;;;;;;5.80;5.30;;;;;;;15.91;51.11;99132.16;5124352;27;20328;-68
2021/09/21 11:02:23;;;;;;;5.07;4.67;;;;;;;16.18;48.84;99112.19;5120880;27;20200;-72
2021/09/21 11:04:52;;;;;;;5.27;4.63;;;;;;;16.89;48.72;99116.66;5130493;27;20201;-68
2021/09/21 11:07:20;;;;;;;5.37;4.90;;;;;;;17.23;48.00;99121.81;5133527;27;20219;-70
2021/09/21 11:09:55;;;;;;;5.57;5.17;;;;;;;17.55;49.91;99117.19;5130472;27;20285;-70
2021/09/21 11:12:25;;;;;;;5.47;5.00;;;;;;;17.45;50.93;99123.66;5092763;27;20212;-70
2021/09/21 11:14:55;;;;;;;5.60;5.20;;;;;;;17.04;52.15;99124.78;5126747;27;20363;-69
2021/09/21 11:17:24;;;;;;;5.70;5.30;;;;;;;16.43;53.22;99121.94;5128623;27;20212;-70
2021/09/21 11:19:54;;;;;;;5.73;5.23;;;;;;;16.00;52.55;99122.25;5110405;27;20229;-69
2021/09/21 11:22:26;;;;;;;5.83;5.43;;;;;;;16.23;52.98;99117.00;5114248;27;20212;-71
2021/09/21 11:25:01;;;;;;;5.47;5.07;;;;;;;16.09;53.31;99115.03;5116284;27;20213;-70
2021/09/21 11:27:29;;;;;;;5.80;5.30;;;;;;;15.77;52.71;99115.75;5077073;27;20227;-66
2021/09/21 11:30:02;;;;;;;5.80;5.40;;;;;;;15.73;53.83;99119.78;5112945;27;20228;-69
2021/09/21 11:32:30;;;;;;;5.23;4.73;;;;;;;15.76;52.90;99114.09;5111450;27;20425;-70
2021/09/21 11:34:59;;;;;;;5.67;5.27;;;;;;;15.76;53.04;99118.63;5103588;27;20208;-66
2021/09/21 11:37:28;;;;;;;5.20;4.90;;;;;;;15.54;54.24;99112.97;5112460;27;20197;-69
2021/09/21 11:39:56;;;;;;;5.63;4.87;;;;;;;15.54;54.37;99093.44;5113700;27;20221;-70
2021/09/21 11:42:30;;;;;;;6.43;5.90;;;;;;;15.42;57.27;99109.78;5082773;27;20274;-69
2021/09/21 11:44:59;;;;;;;5.50;5.10;;;;;;;15.32;57.06;99109.13;5110049;27;20205;-69
2021/09/21 11:47:36;;;;;;;5.67;5.27;;;;;;;15.46;55.39;99115.66;5100285;27;20223;-69